createdAt,value
2017-05-17T00:08:16.126Z,0
2017-05-17T00:18:29.978Z,0
2017-05-17T00:28:43.807Z,0
2017-05-17T00:38:57.664Z,0
2017-05-17T00:49:12.514Z,0
2017-05-17T00:59:28.184Z,0
2017-05-17T01:09:42.134Z,0
2017-05-17T01:19:56.959Z,0
2017-05-17T01:30:12.294Z,0
2017-05-17T01:40:26.741Z,0
2017-05-17T01:50:42.427Z,0
2017-05-17T02:00:57.405Z,0
2017-05-17T02:11:12.415Z,0
2017-05-17T02:21:27.226Z,0
2017-05-17T02:31:42.511Z,0
2017-05-17T02:41:56.463Z,0
2017-05-17T02:52:11.669Z,0
2017-05-17T03:02:26.344Z,0
2017-05-17T03:12:41.752Z,0
2017-05-17T03:22:56.725Z,0
2017-05-17T03:33:11.641Z,5
2017-05-17T03:43:26.551Z,10
2017-05-17T03:53:40.619Z,15
2017-05-17T04:03:54.898Z,25
2017-05-17T04:14:09.370Z,35
2017-05-17T04:24:24.160Z,55
2017-05-17T04:34:39.704Z,75
2017-05-17T04:44:55.414Z,95
2017-05-17T04:55:10.993Z,85
2017-05-17T05:05:26.466Z,95
2017-05-17T05:15:40.672Z,140
2017-05-17T05:25:56.115Z,185
2017-05-17T05:36:10.585Z,235
2017-05-17T05:46:25.668Z,285
2017-05-17T05:56:41.085Z,335
2017-05-17T06:06:55.803Z,385
2017-05-17T06:17:11.579Z,430
2017-05-17T06:27:25.686Z,420
2017-05-17T06:37:39.656Z,450
2017-05-17T06:47:53.787Z,530
2017-05-17T06:58:07.904Z,595
2017-05-17T07:08:22.673Z,925
2017-05-17T07:18:38.507Z,1210
2017-05-17T07:28:53.983Z,1085
2017-05-17T07:39:08.373Z,1375
2017-05-17T07:49:23.864Z,1305
2017-05-17T07:59:39.088Z,1370
2017-05-17T08:09:54.904Z,1530
2017-05-17T08:20:09.899Z,1510
2017-05-17T08:30:25.341Z,1610
2017-05-17T08:40:40.828Z,1555
2017-05-17T08:50:56.751Z,1730
2017-05-17T09:01:11.344Z,1830
2017-05-17T09:11:25.926Z,1670
2017-05-17T09:21:41.445Z,1930
2017-05-17T09:31:56.168Z,1935
2017-05-17T09:42:10.640Z,1905
2017-05-17T09:52:25.943Z,1910
2017-05-17T10:02:40.876Z,1965
2017-05-17T10:12:55.437Z,1855
2017-05-17T10:23:10.006Z,1955
2017-05-17T10:33:24.742Z,2055
2017-05-17T10:43:40.228Z,1895
2017-05-17T10:53:54.731Z,2145
2017-05-17T11:04:09.404Z,2090
2017-05-17T11:14:25.324Z,2280
2017-05-17T11:24:40.060Z,2065
2017-05-17T11:34:54.099Z,2075
2017-05-17T11:45:09.947Z,2215
2017-05-17T11:55:24.865Z,2095
2017-05-17T12:05:40.034Z,1855
2017-05-17T12:15:54.596Z,1750
2017-05-17T12:26:09.541Z,1630
2017-05-17T12:36:24.996Z,1370
2017-05-17T12:46:40.823Z,1145
2017-05-17T12:56:56.428Z,1010
2017-05-17T13:07:10.889Z,1165
2017-05-17T13:17:26.094Z,1780
2017-05-17T13:27:42.069Z,3335
2017-05-17T13:37:57.909Z,2440
2017-05-17T13:48:13.519Z,2795
2017-05-17T13:58:29.154Z,2500
2017-05-17T14:08:43.774Z,2465
2017-05-17T14:18:58.866Z,1970
2017-05-17T14:29:14.162Z,2010
2017-05-17T14:39:28.927Z,1885
2017-05-17T14:49:43.140Z,1805
2017-05-17T14:59:58.597Z,1755
2017-05-17T15:10:14.039Z,1600
2017-05-17T15:20:29.069Z,1450
2017-05-17T15:30:44.395Z,1240
2017-05-17T15:40:59.368Z,1275
2017-05-17T15:51:13.852Z,1190
2017-05-17T16:01:29.060Z,1170
2017-05-17T16:11:44.548Z,1080
2017-05-17T16:21:59.473Z,1015
2017-05-17T16:32:14.969Z,835
2017-05-17T16:42:30.119Z,1625
2017-05-17T16:52:44.577Z,380
2017-05-17T17:03:00.475Z,345
2017-05-17T17:13:15.489Z,275
2017-05-17T17:23:30.843Z,285
2017-05-17T17:33:46.423Z,265
2017-05-17T17:44:01.418Z,205
2017-05-17T17:54:17.281Z,185
2017-05-17T18:04:32.029Z,170
2017-05-17T18:14:46.119Z,155
2017-05-17T18:25:01.849Z,130
2017-05-17T18:35:17.639Z,105
2017-05-17T18:45:33.238Z,80
2017-05-17T18:55:47.901Z,55
2017-05-17T19:06:02.052Z,30
2017-05-17T19:16:16.667Z,10
2017-05-17T19:26:31.156Z,5
2017-05-17T19:36:46.631Z,0
2017-05-17T19:47:00.513Z,0
2017-05-17T19:57:14.922Z,0
2017-05-17T20:07:29.103Z,0
2017-05-17T20:17:44.012Z,0
2017-05-17T20:27:59.362Z,0
2017-05-17T20:38:14.755Z,0
2017-05-17T20:48:29.548Z,0
2017-05-17T20:58:45.164Z,0
2017-05-17T21:08:59.882Z,0
2017-05-17T21:19:14.853Z,0
2017-05-17T21:29:28.913Z,0
2017-05-17T21:39:44.204Z,0
2017-05-17T21:49:59.136Z,0
2017-05-17T22:00:14.332Z,0
2017-05-17T22:10:29.614Z,0
2017-05-17T22:20:44.918Z,0
2017-05-17T22:30:59.490Z,0
2017-05-17T22:41:13.718Z,0
2017-05-17T22:51:28.180Z,0
2017-05-17T23:01:43.135Z,0
2017-05-17T23:11:58.391Z,0
2017-05-17T23:22:12.433Z,0
2017-05-17T23:32:27.179Z,0
2017-05-17T23:42:41.465Z,0
2017-05-17T23:52:56.545Z,0
